createdAt,value
2023-01-02T00:02:43.453Z,100771.00
2023-01-02T00:05:21.208Z,100769.00
2023-01-02T00:07:56.938Z,100762.28
2023-01-02T00:10:36.300Z,100760.34
2023-01-02T00:13:03.647Z,100755.84
2023-01-02T00:15:37.235Z,100750.44
2023-01-02T00:18:10.611Z,100750.63
2023-01-02T00:20:40.977Z,100742.50
2023-01-02T00:23:11.281Z,100738.06
2023-01-02T00:25:38.750Z,100730.06
2023-01-02T00:28:06.126Z,100723.97
2023-01-02T00:33:41.131Z,100714.78
2023-01-02T00:36:32.185Z,100707.97
2023-01-02T00:38:59.514Z,100713.19
2023-01-02T00:41:26.503Z,100713.28
2023-01-02T00:43:53.620Z,100707.75
2023-01-02T00:46:20.988Z,100707.84
2023-01-02T00:48:48.002Z,100705.28
2023-01-02T00:51:15.012Z,100711.38
2023-01-02T00:53:42.186Z,100706.28
2023-01-02T00:56:09.306Z,100713.41
2023-01-02T00:58:36.454Z,100720.34
2023-01-02T01:01:06.596Z,100715.00
2023-01-02T01:03:33.844Z,100714.38
2023-01-02T01:06:07.148Z,100719.50
2023-01-02T01:08:35.956Z,100715.84
2023-01-02T01:11:11.079Z,100713.28
2023-01-02T01:13:38.644Z,100707.00
2023-01-02T01:16:14.894Z,100700.72
2023-01-02T01:18:42.518Z,100697.09
2023-01-02T01:21:17.948Z,100700.59
2023-01-02T01:23:45.365Z,100698.06
2023-01-02T01:26:13.478Z,100706.88
2023-01-02T01:28:40.806Z,100697.94
2023-01-02T01:31:13.031Z,100683.75
2023-01-02T01:33:40.732Z,100690.88
2023-01-02T01:36:19.796Z,100680.34
2023-01-02T01:38:50.234Z,100684.94
2023-01-02T01:41:19.387Z,100669.38
2023-01-02T01:43:48.999Z,100665.53
2023-01-02T01:46:27.350Z,100661.25
2023-01-02T01:49:13.191Z,100664.03
2023-01-02T01:52:04.434Z,100662.69
2023-01-02T01:54:38.026Z,100661.50
2023-01-02T01:57:16.257Z,100658.72
2023-01-02T01:59:43.607Z,100658.72
2023-01-02T02:02:10.671Z,100666.59
2023-01-02T02:04:38.210Z,100644.63
2023-01-02T02:07:05.177Z,100648.03
2023-01-02T02:09:40.932Z,100640.16
2023-01-02T02:12:08.439Z,100640.03
2023-01-02T02:14:35.566Z,100629.50
2023-01-02T02:17:11.653Z,100628.50
2023-01-02T02:20:16.533Z,100627.78
2023-01-02T02:23:23.519Z,100615.28
2023-01-02T02:25:56.629Z,100610.94
2023-01-02T02:28:52.312Z,100602.84
2023-01-02T02:31:34.430Z,100602.84
2023-01-02T02:34:08.047Z,100601.66
2023-01-02T02:36:42.056Z,100585.53
2023-01-02T02:39:22.773Z,100582.34
2023-01-02T02:42:00.551Z,100566.34
2023-01-02T02:44:57.909Z,100570.59
2023-01-02T02:47:32.849Z,100561.53
2023-01-02T02:50:09.435Z,100557.91
2023-01-02T02:52:45.215Z,100564.94
2023-01-02T02:55:20.869Z,100553.53
2023-01-02T02:57:51.353Z,100541.16
2023-01-02T03:00:23.597Z,100565.78
2023-01-02T03:10:52.193Z,100544.88
2023-01-02T03:13:46.279Z,100542.97
2023-01-02T03:16:20.760Z,100534.03
2023-01-02T03:18:55.533Z,100536.56
2023-01-02T03:21:45.315Z,100526.22
2023-01-02T03:24:15.564Z,100518.97
2023-01-02T03:26:48.627Z,100521.75
2023-01-02T03:29:22.522Z,100530.59
2023-01-02T03:31:57.611Z,100524.53
2023-01-02T03:34:27.322Z,100521.84
2023-01-02T03:37:43.378Z,100507.06
2023-01-02T03:40:25.135Z,100513.13
2023-01-02T03:43:00.388Z,100516.75
2023-01-02T03:45:40.098Z,100515.81
2023-01-02T03:48:25.947Z,100518.47
2023-01-02T03:50:59.833Z,100513.00
2023-01-02T03:53:27.662Z,100508.63
2023-01-02T03:56:16.081Z,100510.72
2023-01-02T03:58:57.524Z,100509.31
2023-01-02T04:01:52.571Z,100509.09
2023-01-02T04:04:50.420Z,100504.59
2023-01-02T04:07:48.834Z,100507.63
2023-01-02T04:10:24.207Z,100504.63
2023-01-02T04:12:56.050Z,100504.50
2023-01-02T04:15:43.607Z,100506.22
2023-01-02T04:18:16.253Z,100499.56
2023-01-02T04:20:46.656Z,100491.47
2023-01-02T04:26:44.716Z,100490.16
2023-01-02T04:29:20.921Z,100488.56
2023-01-02T04:31:56.780Z,100484.06
2023-01-02T04:34:24.036Z,100501.91
2023-01-02T04:36:50.725Z,100492.47
2023-01-02T04:39:19.035Z,100489.91
2023-01-02T04:41:45.700Z,100482.63
2023-01-02T04:44:12.351Z,100482.75
2023-01-02T04:46:39.048Z,100481.91
2023-01-02T04:49:05.869Z,100487.97
2023-01-02T04:51:32.563Z,100483.75
2023-01-02T04:53:59.369Z,100482.16
2023-01-02T04:56:26.068Z,100486.66
2023-01-02T04:58:52.948Z,100481.66
2023-01-02T05:01:21.579Z,100479.72
2023-01-02T05:03:51.476Z,100479.59
2023-01-02T05:06:18.808Z,100480.56
2023-01-02T05:08:45.485Z,100471.59
2023-01-02T05:11:16.298Z,100474.03
2023-01-02T05:13:43.012Z,100467.69
2023-01-02T05:16:10.413Z,100482.41
2023-01-02T05:18:37.223Z,100473.31
2023-01-02T05:24:50.690Z,100475.97
2023-01-02T05:27:33.430Z,100478.75
2023-01-02T05:30:23.215Z,100468.94
2023-01-02T05:32:57.229Z,100471.22
2023-01-02T05:35:32.483Z,100471.22
2023-01-02T05:38:12.410Z,100468.47
2023-01-02T05:40:42.445Z,100470.50
2023-01-02T05:43:09.415Z,100461.03
2023-01-02T05:48:45.466Z,100461.41
2023-01-02T05:51:20.753Z,100464.81
2023-01-02T05:57:46.596Z,100458.63
2023-01-02T06:00:16.942Z,100456.44
2023-01-02T06:02:48.006Z,100464.34
2023-01-02T06:05:15.724Z,100459.81
2023-01-02T06:07:42.633Z,100463.25
2023-01-02T06:10:09.700Z,100463.25
2023-01-02T06:12:42.490Z,100458.88
2023-01-02T06:15:20.718Z,100473.09
2023-01-02T06:17:47.891Z,100469.66
2023-01-02T06:20:14.834Z,100472.47
2023-01-02T06:22:51.078Z,100477.81
2023-01-02T06:25:24.392Z,100475.34
2023-01-02T06:27:51.301Z,100473.56
2023-01-02T06:30:26.983Z,100471.84
2023-01-02T06:33:11.118Z,100466.03
2023-01-02T06:39:21.554Z,100464.22
2023-01-02T06:45:13.961Z,100464.22
2023-01-02T07:06:34.436Z,100474.75
2023-01-02T07:13:09.916Z,100473.44
2023-01-02T07:20:27.912Z,100479.50
2023-01-02T07:27:21.991Z,100486.16
2023-01-02T07:38:54.223Z,100501.34
2023-01-02T07:42:26.316Z,100513.72
2023-01-02T07:45:28.083Z,100511.78
2023-01-02T07:47:58.622Z,100493.56
2023-01-02T07:51:15.809Z,100489.59
2023-01-02T07:53:51.649Z,100509.75
2023-01-02T07:56:26.564Z,100500.63
2023-01-02T07:59:09.446Z,100495.50
2023-01-02T08:02:08.673Z,100491.75
2023-01-02T08:04:57.203Z,100503.88
2023-01-02T08:08:09.928Z,100511.56
2023-01-02T08:10:39.863Z,100503.28
2023-01-02T08:13:10.067Z,100507.53
2023-01-02T08:15:46.741Z,100503.16
2023-01-02T08:18:16.458Z,100516.63
2023-01-02T08:20:45.970Z,100506.91
2023-01-02T08:24:32.220Z,100502.28
2023-01-02T08:28:14.358Z,100503.03
2023-01-02T08:31:06.171Z,100495.63
2023-01-02T08:34:10.631Z,100502.28
2023-01-02T08:36:41.976Z,100501.44
2023-01-02T08:39:13.591Z,100503.72
2023-01-02T08:41:55.109Z,100505.44
2023-01-02T08:44:36.964Z,100509.06
2023-01-02T08:47:07.121Z,100503.25
2023-01-02T08:49:33.986Z,100520.13
2023-01-02T08:52:00.977Z,100502.16
2023-01-02T08:54:27.811Z,100519.00
2023-01-02T08:56:54.707Z,100504.56
2023-01-02T08:59:23.582Z,100508.94
2023-01-02T09:01:57.419Z,100492.03
2023-01-02T09:04:37.975Z,100505.78
2023-01-02T09:07:18.882Z,100529.09
2023-01-02T09:10:25.942Z,100517.91
2023-01-02T09:13:04.648Z,100530.75
2023-01-02T09:15:37.282Z,100513.47
2023-01-02T09:18:08.991Z,100517.84
2023-01-02T09:41:22.333Z,100511.28
2023-01-02T09:44:02.996Z,100529.25
2023-01-02T09:47:09.558Z,100517.72
2023-01-02T09:49:44.370Z,100509.06
2023-01-02T09:52:53.970Z,100509.91
2023-01-02T09:55:55.122Z,100506.53
2023-01-02T09:59:04.050Z,100497.63
2023-01-02T10:02:03.830Z,100483.44
2023-01-02T10:04:50.425Z,100486.69
2023-01-02T10:07:48.406Z,100490.09
2023-01-02T10:10:27.191Z,100491.16
2023-01-02T10:13:12.636Z,100484.69
2023-01-02T10:15:45.087Z,100479.56
2023-01-02T10:18:22.443Z,100475.94
2023-01-02T10:21:10.291Z,100475.78
2023-01-02T10:23:43.605Z,100460.47
2023-01-02T10:26:20.978Z,100468.50
2023-01-02T10:28:54.019Z,100473.00
2023-01-02T10:31:43.140Z,100456.84
2023-01-02T10:34:21.429Z,100474.03
2023-01-02T10:36:50.099Z,100460.25
2023-01-02T10:39:26.949Z,100448.84
2023-01-02T10:42:01.341Z,100443.38
2023-01-02T10:44:33.908Z,100453.78
2023-01-02T10:47:25.194Z,100452.97
2023-01-02T10:49:55.324Z,100451.25
2023-01-02T10:52:29.847Z,100451.66
2023-01-02T10:55:00.639Z,100473.00
2023-01-02T10:57:59.833Z,100451.13
2023-01-02T11:00:52.053Z,100441.97
2023-01-02T11:03:40.796Z,100448.59
2023-01-02T11:07:31.482Z,100454.53
2023-01-02T11:17:35.205Z,100432.59
2023-01-02T11:20:38.035Z,100442.56
2023-01-02T11:23:05.327Z,100439.06
2023-01-02T11:29:31.400Z,100433.28
2023-01-02T11:33:07.999Z,100449.19
2023-01-02T11:36:27.954Z,100436.78
2023-01-02T11:39:44.962Z,100441.41
2023-01-02T11:43:02.358Z,100451.53
2023-01-02T11:45:56.513Z,100456.47
2023-01-02T11:55:14.147Z,100461.13
2023-01-02T11:58:29.296Z,100468.69
2023-01-02T12:06:01.030Z,100475.03
2023-01-02T12:09:23.297Z,100475.16
2023-01-02T12:12:37.488Z,100443.88
2023-01-02T12:27:47.100Z,100467.53
2023-01-02T12:43:02.990Z,100457.72
2023-01-02T12:51:28.787Z,100456.53
2023-01-02T12:55:28.438Z,100462.03
2023-01-02T14:02:32.610Z,100496.41
2023-01-02T14:06:16.911Z,100520.09
2023-01-02T14:10:40.333Z,100500.16
2023-01-02T14:21:27.797Z,100515.59
2023-01-02T14:24:45.185Z,100519.72
2023-01-02T14:30:50.407Z,100520.94
2023-01-02T14:33:31.978Z,100533.94
2023-01-02T14:36:09.570Z,100516.19
2023-01-02T14:38:57.784Z,100515.47
2023-01-02T14:42:14.127Z,100524.09
2023-01-02T14:44:54.266Z,100537.72
2023-01-02T14:51:14.007Z,100541.66
2023-01-02T14:54:14.238Z,100555.84
2023-01-02T14:57:15.457Z,100558.66
2023-01-02T14:59:58.485Z,100559.38
2023-01-02T15:02:37.236Z,100552.56
2023-01-02T15:05:13.962Z,100574.72
2023-01-02T15:11:57.292Z,100572.78
2023-01-02T15:14:24.581Z,100602.72
2023-01-02T15:20:35.066Z,100610.25
2023-01-02T15:23:27.290Z,100588.25
2023-01-02T15:37:43.169Z,100652.91
2023-01-02T15:40:25.388Z,100674.88
2023-01-02T15:43:12.338Z,100639.16
2023-01-02T15:45:47.912Z,100653.03
2023-01-02T15:48:15.349Z,100649.75
2023-01-02T15:50:42.783Z,100668.91
2023-01-02T15:53:20.165Z,100666.69
2023-01-02T15:55:49.329Z,100684.31
2023-01-02T15:58:15.968Z,100682.97
2023-01-02T16:00:44.798Z,100683.84
2023-01-02T16:03:14.136Z,100671.78
2023-01-02T16:05:54.103Z,100696.78
2023-01-02T16:08:22.881Z,100688.91
2023-01-02T16:10:51.617Z,100699.19
2023-01-02T16:13:39.474Z,100719.84
2023-01-02T16:16:15.457Z,100720.75
2023-01-02T16:18:45.146Z,100714.28
2023-01-02T16:21:14.086Z,100732.59
2023-01-02T16:23:49.026Z,100719.44
2023-01-02T16:26:17.914Z,100731.78
2023-01-02T16:28:44.925Z,100727.53
2023-01-02T16:31:16.857Z,100724.22
2023-01-02T16:33:45.808Z,100721.78
2023-01-02T16:36:15.548Z,100736.16
2023-01-02T16:38:48.437Z,100750.06
2023-01-02T16:41:37.407Z,100742.28
2023-01-02T16:44:15.607Z,100739.63
2023-01-02T16:46:43.649Z,100744.22
2023-01-02T16:49:18.874Z,100752.09
2023-01-02T16:51:48.758Z,100763.00
2023-01-02T16:54:16.508Z,100762.34
2023-01-02T16:56:43.575Z,100756.19
2023-01-02T16:59:10.667Z,100771.53
2023-01-02T17:01:37.569Z,100770.91
2023-01-02T17:04:04.536Z,100766.09
2023-01-02T17:06:31.788Z,100782.34
2023-01-02T17:08:58.480Z,100763.66
2023-01-02T17:11:25.627Z,100773.19
2023-01-02T17:13:54.345Z,100812.75
2023-01-02T17:16:21.196Z,100798.66
2023-01-02T17:18:47.923Z,100795.25
2023-01-02T17:21:14.880Z,100795.91
2023-01-02T17:23:41.782Z,100784.38
2023-01-02T17:26:08.739Z,100807.81
2023-01-02T17:28:37.943Z,100804.59
2023-01-02T17:31:04.940Z,100807.19
2023-01-02T17:33:31.634Z,100810.03
2023-01-02T17:35:58.471Z,100822.19
2023-01-02T17:38:25.635Z,100837.28
2023-01-02T17:40:59.092Z,100817.13
2023-01-02T17:43:26.634Z,100830.53
2023-01-02T17:45:53.632Z,100819.69
2023-01-02T17:48:24.634Z,100842.34
2023-01-02T17:50:52.621Z,100836.38
2023-01-02T17:53:19.304Z,100837.72
2023-01-02T17:56:20.727Z,100836.03
2023-01-02T17:58:40.223Z,100841.34
2023-01-02T18:01:07.052Z,100835.19
2023-01-02T18:03:33.729Z,100847.34
2023-01-02T18:06:04.988Z,100856.69
2023-01-02T18:08:32.108Z,100863.06
2023-01-02T18:10:58.830Z,100872.94
2023-01-02T18:13:28.363Z,100868.19
2023-01-02T18:15:57.550Z,100878.38
2023-01-02T18:59:50.622Z,100910.03
2023-01-02T19:10:53.625Z,100914.03
2023-01-02T19:13:39.997Z,100909.53
2023-01-02T19:19:58.941Z,100928.09
2023-01-02T19:23:13.920Z,100940.84
2023-01-02T19:25:39.987Z,100942.25
2023-01-02T19:28:18.201Z,100947.47
2023-01-02T19:30:45.963Z,100963.75
2023-01-02T19:33:36.765Z,100954.25
2023-01-02T19:36:06.132Z,100965.47
2023-01-02T19:38:36.530Z,100957.75
2023-01-02T19:41:03.864Z,100954.97
2023-01-02T19:43:35.022Z,100960.31
2023-01-02T19:46:06.583Z,100963.06
2023-01-02T19:52:18.160Z,100976.34
2023-01-02T19:54:48.973Z,100982.22
2023-01-02T19:57:17.903Z,100980.34
2023-01-02T19:59:47.427Z,100983.94
2023-01-02T20:02:33.654Z,100990.41
2023-01-02T20:05:27.338Z,100986.81
2023-01-02T20:08:11.840Z,100987.75
2023-01-02T20:10:39.039Z,100986.81
2023-01-02T20:13:22.328Z,100997.81
2023-01-02T20:15:54.144Z,101009.09
2023-01-02T20:18:23.656Z,101011.06
2023-01-02T20:20:55.371Z,100997.41
2023-01-02T20:23:56.550Z,101007.84
2023-01-02T20:27:42.432Z,101014.75
2023-01-02T20:33:34.478Z,101017.50
2023-01-02T20:36:21.679Z,101018.44
2023-01-02T20:39:35.171Z,101014.44
2023-01-02T20:42:58.067Z,101022.75
2023-01-02T20:45:31.871Z,101030.34
2023-01-02T23:08:39.283Z,101220.66
2023-01-02T23:11:56.402Z,101230.09
2023-01-02T23:21:07.397Z,101232.75
2023-01-02T23:27:12.203Z,101235.00
2023-01-02T23:30:07.864Z,101236.94
2023-01-02T23:32:51.006Z,101245.78
2023-01-02T23:36:18.257Z,101237.50
2023-01-02T23:42:42.264Z,101246.00
2023-01-02T23:50:07.238Z,101262.41
2023-01-02T23:53:53.796Z,101264.50
